Ship Status Report: callsign CFN5364

sailwx.info

Track history (hours):
 
Tides and Currents Weather Stations Pressure Air Temp Water Temp Dewpoint Dewpoint Depression Visibility Wind Speed Wind Dir Waves Ship Positions

Callsign CFN5364 (name unknown)

Last reported at 2014-Jul-19 17:32 UTC. Time now 2014-Aug-01 13:51 UTC.
Position N 51°34' W 127°53'.
Warning: this ship's position is 12 days out of date.

Date/timePositionNaut miles runAvg speedWind from/ knotsBaromVisibWave heightAir tempDewpointWater temp
2014-Jul-19 17:32N 51°34' W 127°53'2019.1
2014-Jul-19 16:30N 51°14' W 127°52'1718.5
2014-Jul-19 15:33N 50°58' W 127°43'1717.0
2014-Jul-19 14:33N 50°44' W 127°28'6 0.8
2014-Jul-19 06:33N 50°50' W 127°29'1717.5
2014-Jul-19 05:33N 51°03' W 127°47'1918.7
2014-Jul-19 04:33N 51°21' W 127°52'19814.2
2014-Jul-18 14:33N 54°18' W 130°21'0 0.0
2014-Jul-18 13:31N 54°18' W 130°21'0 0.2
2014-Jul-18 12:33N 54°18' W 130°22'0 0.3
2014-Jul-18 11:33N 54°18' W 130°21'0 0.2
2014-Jul-18 10:31N 54°18' W 130°21'0 0.0
2014-Jul-18 09:31N 54°18' W 130°21'0 0.0
2014-Jul-18 08:33N 54°18' W 130°21'0 0.0
2014-Jul-18 07:33N 54°18' W 130°21'0 0.0
2014-Jul-18 06:32N 54°18' W 130°21'234 9.4
2014-Jul-17 05:33N 50°49' W 127°28'1818.3
2014-Jul-17 04:33N 51°03' W 127°47'2119.3
2014-Jul-17 03:29N 51°23' W 127°52'19615.2
2014-Jul-16 14:33N 54°18' W 130°22'0 0.4
2014-Jul-16 13:31N 54°18' W 130°21'0 0.0
2014-Jul-16 12:30N 54°18' W 130°21'0 0.0
2014-Jul-16 11:30N 54°18' W 130°21'0 0.0
2014-Jul-16 10:29N 54°18' W 130°21'0 0.0
2014-Jul-16 09:32N 54°18' W 130°21'0 0.0
2014-Jul-16 08:32N 54°18' W 130°21'0 0.0
2014-Jul-16 07:31N 54°18' W 130°21'0 0.0
2014-Jul-16 06:28N 54°18' W 130°21'18714.3
2014-Jul-15 17:23N 51°34' W 127°52'1719.5
2014-Jul-15 16:33N 51°17' W 127°53'1919.5
2014-Jul-15 15:33N 50°59' W 127°45'1917.7
2014-Jul-15 14:30N 50°44' W 127°28'0 0.0
2014-Jul-15 06:08N 50°44' W 127°27'712.5
2014-Jul-15 05:33N 50°51' W 127°30'1818.5
2014-Jul-15 04:33N 51°05' W 127°49'2119.7
2014-Jul-15 03:29N 51°26' W 127°51'2020.5
2014-Jul-15 02:30N 51°46' W 127°56'41 9.4
2014-Jul-14 22:11N 52°20' W 128°31'13517.6
2014-Jul-14 14:33N 54°17' W 130°22'1 0.6
2014-Jul-14 13:32N 54°18' W 130°21'0 0.0
2014-Jul-14 12:31N 54°18' W 130°21'0 0.0
2014-Jul-14 11:31N 54°18' W 130°21'0 0.0
2014-Jul-14 10:33N 54°18' W 130°21'0 0.0
2014-Jul-14 09:33N 54°18' W 130°21'0 0.0
2014-Jul-14 08:32N 54°18' W 130°21'0 0.0
2014-Jul-14 07:32N 54°18' W 130°21'0 0.0
2014-Jul-14 06:32N 54°18' W 130°21'18814.5
2014-Jul-13 17:33N 51°33' W 127°52'2019.5
2014-Jul-13 16:32N 51°13' W 127°53'1919.5
2014-Jul-13 15:33N 50°55' W 127°40'14 1.6
2014-Jul-13 06:33N 50°44' W 127°28'1717.1
2014-Jul-13 05:33N 50°57' W 127°44'1919.4
2014-Jul-13 04:33N 51°16' W 127°53'2019.8
2014-Jul-13 03:33N 51°36' W 127°53'2120.1
2014-Jul-13 02:30N 51°57' W 127°56'16 5.2
2014-Jul-12 23:30N 52°11' W 128°06'15016.8
2014-Jul-12 14:33N 54°18' W 130°21'0 0.0
2014-Jul-12 13:33N 54°18' W 130°21'0 0.5
2014-Jul-12 12:33N 54°18' W 130°22'0 0.5
2014-Jul-12 11:33N 54°18' W 130°21'0 0.0
2014-Jul-12 10:32N 54°18' W 130°21'0 0.0
2014-Jul-12 09:31N 54°18' W 130°21'0 0.0
2014-Jul-12 08:31N 54°18' W 130°21'0 0.1
2014-Jul-12 07:33N 54°18' W 130°21'18814.0
2014-Jul-11 18:07N 51°33' W 127°52'1319.8
2014-Jul-11 17:28N 51°20' W 127°52'1718.9
2014-Jul-11 16:33N 51°03' W 127°49'2019.9
2014-Jul-11 15:33N 50°49' W 127°27'0 0.0
2014-Jul-11 05:33N 50°49' W 127°27'2019.7
2014-Jul-11 04:33N 51°04' W 127°48'2019.6
2014-Jul-11 03:33N 51°23' W 127°51'19715.2
2014-Jul-10 14:33N 54°18' W 130°22'0 0.3
2014-Jul-10 13:32N 54°18' W 130°21'0 0.0
2014-Jul-10 12:32N 54°18' W 130°21'0 0.0
2014-Jul-10 11:31N 54°18' W 130°21'0 0.0
2014-Jul-10 10:31N 54°18' W 130°21'0 0.0
2014-Jul-10 09:31N 54°18' W 130°21'0 0.0
2014-Jul-10 08:33N 54°18' W 130°21'0 0.0
2014-Jul-10 07:33N 54°18' W 130°21'18713.9
2014-Jul-09 18:08N 51°34' W 127°53'  
Track history (hours):
 
Tides and Currents Weather Stations Pressure Air Temp Water Temp Dewpoint Dewpoint Depression Visibility Wind Speed Wind Dir Waves Ship Positions

Callsign CFN5364 (name unknown)

Last reported at 2014-Jul-19 17:32 UTC. Time now 2014-Aug-01 13:51 UTC.
Position N 51°34' W 127°53'.
Warning: this ship's position is 12 days out of date.

Date/timePositionNaut miles runAvg speedWind from/ knotsBaromVisibWave heightAir tempDewpointWater temp
2014-Jul-19 17:32N 51°34' W 127°53'2019.1
2014-Jul-19 16:30N 51°14' W 127°52'1718.5
2014-Jul-19 15:33N 50°58' W 127°43'1717.0
2014-Jul-19 14:33N 50°44' W 127°28'6 0.8
2014-Jul-19 06:33N 50°50' W 127°29'1717.5
2014-Jul-19 05:33N 51°03' W 127°47'1918.7
2014-Jul-19 04:33N 51°21' W 127°52'19814.2
2014-Jul-18 14:33N 54°18' W 130°21'0 0.0
2014-Jul-18 13:31N 54°18' W 130°21'0 0.2
2014-Jul-18 12:33N 54°18' W 130°22'0 0.3
2014-Jul-18 11:33N 54°18' W 130°21'0 0.2
2014-Jul-18 10:31N 54°18' W 130°21'0 0.0
2014-Jul-18 09:31N 54°18' W 130°21'0 0.0
2014-Jul-18 08:33N 54°18' W 130°21'0 0.0
2014-Jul-18 07:33N 54°18' W 130°21'0 0.0
2014-Jul-18 06:32N 54°18' W 130°21'234 9.4
2014-Jul-17 05:33N 50°49' W 127°28'1818.3
2014-Jul-17 04:33N 51°03' W 127°47'2119.3
2014-Jul-17 03:29N 51°23' W 127°52'19615.2
2014-Jul-16 14:33N 54°18' W 130°22'0 0.4
2014-Jul-16 13:31N 54°18' W 130°21'0 0.0
2014-Jul-16 12:30N 54°18' W 130°21'0 0.0
2014-Jul-16 11:30N 54°18' W 130°21'0 0.0
2014-Jul-16 10:29N 54°18' W 130°21'0 0.0
2014-Jul-16 09:32N 54°18' W 130°21'0 0.0
2014-Jul-16 08:32N 54°18' W 130°21'0 0.0
2014-Jul-16 07:31N 54°18' W 130°21'0 0.0
2014-Jul-16 06:28N 54°18' W 130°21'18714.3
2014-Jul-15 17:23N 51°34' W 127°52'1719.5
2014-Jul-15 16:33N 51°17' W 127°53'1919.5
2014-Jul-15 15:33N 50°59' W 127°45'1917.7
2014-Jul-15 14:30N 50°44' W 127°28'0 0.0
2014-Jul-15 06:08N 50°44' W 127°27'712.5
2014-Jul-15 05:33N 50°51' W 127°30'1818.5
2014-Jul-15 04:33N 51°05' W 127°49'2119.7
2014-Jul-15 03:29N 51°26' W 127°51'2020.5
2014-Jul-15 02:30N 51°46' W 127°56'41 9.4
2014-Jul-14 22:11N 52°20' W 128°31'13517.6
2014-Jul-14 14:33N 54°17' W 130°22'1 0.6
2014-Jul-14 13:32N 54°18' W 130°21'0 0.0
2014-Jul-14 12:31N 54°18' W 130°21'0 0.0
2014-Jul-14 11:31N 54°18' W 130°21'0 0.0
2014-Jul-14 10:33N 54°18' W 130°21'0 0.0
2014-Jul-14 09:33N 54°18' W 130°21'0 0.0
2014-Jul-14 08:32N 54°18' W 130°21'0 0.0
2014-Jul-14 07:32N 54°18' W 130°21'0 0.0
2014-Jul-14 06:32N 54°18' W 130°21'18814.5
2014-Jul-13 17:33N 51°33' W 127°52'2019.5
2014-Jul-13 16:32N 51°13' W 127°53'1919.5
2014-Jul-13 15:33N 50°55' W 127°40'14 1.6
2014-Jul-13 06:33N 50°44' W 127°28'1717.1
2014-Jul-13 05:33N 50°57' W 127°44'1919.4
2014-Jul-13 04:33N 51°16' W 127°53'2019.8
2014-Jul-13 03:33N 51°36' W 127°53'2120.1
2014-Jul-13 02:30N 51°57' W 127°56'16 5.2
2014-Jul-12 23:30N 52°11' W 128°06'15016.8
2014-Jul-12 14:33N 54°18' W 130°21'0 0.0
2014-Jul-12 13:33N 54°18' W 130°21'0 0.5
2014-Jul-12 12:33N 54°18' W 130°22'0 0.5
2014-Jul-12 11:33N 54°18' W 130°21'0 0.0
2014-Jul-12 10:32N 54°18' W 130°21'0 0.0
2014-Jul-12 09:31N 54°18' W 130°21'0 0.0
2014-Jul-12 08:31N 54°18' W 130°21'0 0.1
2014-Jul-12 07:33N 54°18' W 130°21'18814.0
2014-Jul-11 18:07N 51°33' W 127°52'1319.8
2014-Jul-11 17:28N 51°20' W 127°52'1718.9
2014-Jul-11 16:33N 51°03' W 127°49'2019.9
2014-Jul-11 15:33N 50°49' W 127°27'0 0.0
2014-Jul-11 05:33N 50°49' W 127°27'2019.7
2014-Jul-11 04:33N 51°04' W 127°48'2019.6
2014-Jul-11 03:33N 51°23' W 127°51'19715.2
2014-Jul-10 14:33N 54°18' W 130°22'0 0.3
2014-Jul-10 13:32N 54°18' W 130°21'0 0.0
2014-Jul-10 12:32N 54°18' W 130°21'0 0.0
2014-Jul-10 11:31N 54°18' W 130°21'0 0.0
2014-Jul-10 10:31N 54°18' W 130°21'0 0.0
2014-Jul-10 09:31N 54°18' W 130°21'0 0.0
2014-Jul-10 08:33N 54°18' W 130°21'0 0.0
2014-Jul-10 07:33N 54°18' W 130°21'18713.9
2014-Jul-09 18:08N 51°34' W 127°53'  

Dump ship's entire track history